sensor_id;sensor_type;location;lat;lon;timestamp;pressure;altitude;pressure_sealevel;temperature;humidity
21100;BME280;10708;50.824;4.408;2023-05-02T00:11:45;101112.41;;;11.39;100.00
21100;BME280;10708;50.824;4.408;2023-05-02T00:27:16;101121.91;;;11.44;100.00
21100;BME280;10708;50.824;4.408;2023-05-02T00:32:38;101114.75;;;11.48;100.00
21100;BME280;10708;50.824;4.408;2023-05-02T02:33:15;101184.22;;;10.54;100.00
21100;BME280;10708;50.824;4.408;2023-05-02T02:38:53;101199.22;;;10.51;100.00
21100;BME280;10708;50.824;4.408;2023-05-02T02:49:21;101196.72;;;10.46;100.00
21100;BME280;10708;50.824;4.408;2023-05-02T04:05:56;101251.16;;;10.07;100.00
21100;BME280;10708;50.824;4.408;2023-05-02T04:11:03;101245.94;;;10.04;100.00
21100;BME280;10708;50.824;4.408;2023-05-02T04:43:04;101286.16;;;10.11;100.00
21100;BME280;10708;50.824;4.408;2023-05-02T04:53:30;101307.13;;;10.14;100.00
21100;BME280;10708;50.824;4.408;2023-05-02T05:03:49;101332.56;;;10.15;100.00
21100;BME280;10708;50.824;4.408;2023-05-02T05:14:16;101342.00;;;10.26;100.00
21100;BME280;10708;50.824;4.408;2023-05-02T05:46:18;101370.72;;;10.37;100.00
21100;BME280;10708;50.824;4.408;2023-05-02T05:51:20;101377.66;;;10.40;100.00
21100;BME280;10708;50.824;4.408;2023-05-02T06:06:59;101412.50;;;10.52;100.00
21100;BME280;10708;50.824;4.408;2023-05-02T06:12:10;101422.09;;;10.56;100.00
21100;BME280;10708;50.824;4.408;2023-05-02T06:17:12;101424.59;;;10.61;100.00
21100;BME280;10708;50.824;4.408;2023-05-02T06:22:18;101434.22;;;10.63;100.00
21100;BME280;10708;50.824;4.408;2023-05-02T06:27:21;101432.47;;;10.62;100.00
21100;BME280;10708;50.824;4.408;2023-05-02T06:37:36;101444.53;;;10.72;100.00
21100;BME280;10708;50.824;4.408;2023-05-02T06:42:40;101455.72;;;10.84;100.00
21100;BME280;10708;50.824;4.408;2023-05-02T06:53:01;101471.31;;;10.93;100.00
21100;BME280;10708;50.824;4.408;2023-05-02T06:58:14;101470.47;;;10.91;100.00
21100;BME280;10708;50.824;4.408;2023-05-02T08:14:53;101495.09;;;16.59;100.00
21100;BME280;10708;50.824;4.408;2023-05-02T08:20:04;101495.66;;;17.94;100.00
21100;BME280;10708;50.824;4.408;2023-05-02T08:30:21;101507.88;;;19.44;100.00
21100;BME280;10708;50.824;4.408;2023-05-02T08:35:24;101519.22;;;18.01;100.00
21100;BME280;10708;50.824;4.408;2023-05-02T08:40:27;101524.50;;;18.03;100.00
21100;BME280;10708;50.824;4.408;2023-05-02T08:45:39;101516.50;;;17.14;100.00
21100;BME280;10708;50.824;4.408;2023-05-02T08:50:43;101525.06;;;17.02;100.00
21100;BME280;10708;50.824;4.408;2023-05-02T08:55:48;101536.78;;;16.79;100.00
21100;BME280;10708;50.824;4.408;2023-05-02T09:00:52;101544.38;;;16.68;100.00
21100;BME280;10708;50.824;4.408;2023-05-02T09:06:05;101541.03;;;17.92;100.00
21100;BME280;10708;50.824;4.408;2023-05-02T09:11:08;101537.88;;;18.19;100.00
21100;BME280;10708;50.824;4.408;2023-05-02T09:16:13;101526.53;;;18.15;100.00
21100;BME280;10708;50.824;4.408;2023-05-02T09:21:17;101541.03;;;17.75;100.00
21100;BME280;10708;50.824;4.408;2023-05-02T09:26:21;101551.69;;;17.75;100.00
21100;BME280;10708;50.824;4.408;2023-05-02T09:31:27;101552.41;;;17.24;100.00
21100;BME280;10708;50.824;4.408;2023-05-02T09:36:38;101565.59;;;16.69;100.00
21100;BME280;10708;50.824;4.408;2023-05-02T09:41:42;101566.91;;;16.59;100.00
21100;BME280;10708;50.824;4.408;2023-05-02T09:46:48;101574.72;;;16.43;100.00
21100;BME280;10708;50.824;4.408;2023-05-02T09:52:08;101564.47;;;17.12;100.00
21100;BME280;10708;50.824;4.408;2023-05-02T09:57:12;101562.56;;;17.16;100.00
21100;BME280;10708;50.824;4.408;2023-05-02T10:02:18;101557.84;;;17.57;100.00
21100;BME280;10708;50.824;4.408;2023-05-02T10:07:22;101563.91;;;17.79;100.00
21100;BME280;10708;50.824;4.408;2023-05-02T10:12:25;101562.16;;;18.47;100.00
21100;BME280;10708;50.824;4.408;2023-05-02T10:17:38;101564.47;;;18.20;100.00
21100;BME280;10708;50.824;4.408;2023-05-02T10:22:42;101553.81;;;17.86;100.00
21100;BME280;10708;50.824;4.408;2023-05-02T10:28:16;101563.81;;;17.81;100.00
21100;BME280;10708;50.824;4.408;2023-05-02T10:33:21;101574.47;;;17.45;100.00
21100;BME280;10708;50.824;4.408;2023-05-02T10:38:25;101584.47;;;16.83;100.00
21100;BME280;10708;50.824;4.408;2023-05-02T10:43:30;101584.00;;;16.53;100.00
21100;BME280;10708;50.824;4.408;2023-05-02T10:48:36;101575.97;;;17.31;100.00
21100;BME280;10708;50.824;4.408;2023-05-02T10:53:38;101583.47;;;17.42;100.00
21100;BME280;10708;50.824;4.408;2023-05-02T10:58:44;101587.06;;;17.22;100.00
21100;BME280;10708;50.824;4.408;2023-05-02T11:03:57;101577.59;;;16.78;100.00
21100;BME280;10708;50.824;4.408;2023-05-02T11:09:34;101574.97;;;16.37;100.00
21100;BME280;10708;50.824;4.408;2023-05-02T11:14:43;101576.91;;;16.54;100.00
21100;BME280;10708;50.824;4.408;2023-05-02T11:25:36;101585.59;;;15.97;100.00
21100;BME280;10708;50.824;4.408;2023-05-02T11:30:41;101580.53;;;15.91;100.00
21100;BME280;10708;50.824;4.408;2023-05-02T11:35:44;101580.03;;;16.43;100.00
21100;BME280;10708;50.824;4.408;2023-05-02T11:40:53;101588.03;;;16.64;100.00
21100;BME280;10708;50.824;4.408;2023-05-02T11:45:57;101584.59;;;16.19;100.00
21100;BME280;10708;50.824;4.408;2023-05-02T11:51:00;101576.56;;;16.01;100.00
21100;BME280;10708;50.824;4.408;2023-05-02T11:56:08;101586.28;;;16.22;100.00
21100;BME280;10708;50.824;4.408;2023-05-02T12:01:11;101591.41;;;16.27;100.00
21100;BME280;10708;50.824;4.408;2023-05-02T12:06:18;101599.94;;;15.93;100.00
21100;BME280;10708;50.824;4.408;2023-05-02T12:11:23;101586.72;;;16.11;100.00
21100;BME280;10708;50.824;4.408;2023-05-02T12:22:01;101604.09;;;15.98;100.00
21100;BME280;10708;50.824;4.408;2023-05-02T12:27:09;101604.75;;;16.05;100.00
21100;BME280;10708;50.824;4.408;2023-05-02T12:32:14;101627.88;;;16.23;100.00
21100;BME280;10708;50.824;4.408;2023-05-02T12:37:22;101614.84;;;16.37;100.00
21100;BME280;10708;50.824;4.408;2023-05-02T12:42:26;101620.63;;;16.06;100.00
21100;BME280;10708;50.824;4.408;2023-05-02T12:47:28;101616.63;;;15.96;100.00
21100;BME280;10708;50.824;4.408;2023-05-02T12:52:48;101637.06;;;15.72;100.00
21100;BME280;10708;50.824;4.408;2023-05-02T12:58:00;101637.44;;;15.63;100.00
21100;BME280;10708;50.824;4.408;2023-05-02T13:03:04;101645.22;;;15.44;100.00
21100;BME280;10708;50.824;4.408;2023-05-02T13:08:06;101647.94;;;15.66;100.00
21100;BME280;10708;50.824;4.408;2023-05-02T13:13:10;101655.59;;;15.74;100.00
21100;BME280;10708;50.824;4.408;2023-05-02T13:18:13;101647.78;;;15.69;100.00
21100;BME280;10708;50.824;4.408;2023-05-02T13:23:15;101654.69;;;15.75;100.00
21100;BME280;10708;50.824;4.408;2023-05-02T13:28:19;101641.00;;;15.62;100.00
21100;BME280;10708;50.824;4.408;2023-05-02T13:33:22;101647.78;;;15.69;100.00
21100;BME280;10708;50.824;4.408;2023-05-02T13:38:24;101628.78;;;15.80;100.00
21100;BME280;10708;50.824;4.408;2023-05-02T13:43:28;101624.81;;;15.90;100.00
21100;BME280;10708;50.824;4.408;2023-05-02T13:48:31;101626.19;;;15.78;100.00
21100;BME280;10708;50.824;4.408;2023-05-02T13:53:33;101631.19;;;15.86;100.00
21100;BME280;10708;50.824;4.408;2023-05-02T13:58:37;101634.03;;;15.81;100.00
21100;BME280;10708;50.824;4.408;2023-05-02T14:03:40;101635.75;;;15.82;100.00
21100;BME280;10708;50.824;4.408;2023-05-02T14:08:42;101623.47;;;15.80;100.00
21100;BME280;10708;50.824;4.408;2023-05-02T14:13:47;101621.28;;;15.90;100.00
21100;BME280;10708;50.824;4.408;2023-05-02T14:18:49;101627.97;;;15.78;100.00
21100;BME280;10708;50.824;4.408;2023-05-02T14:23:52;101619.75;;;15.62;100.00
21100;BME280;10708;50.824;4.408;2023-05-02T14:28:57;101632.50;;;15.54;100.00
21100;BME280;10708;50.824;4.408;2023-05-02T14:33:59;101621.28;;;15.46;100.00
21100;BME280;10708;50.824;4.408;2023-05-02T14:39:02;101619.31;;;15.28;100.00
21100;BME280;10708;50.824;4.408;2023-05-02T14:44:06;101637.44;;;15.40;100.00
21100;BME280;10708;50.824;4.408;2023-05-02T14:49:09;101631.03;;;15.45;100.00
21100;BME280;10708;50.824;4.408;2023-05-02T14:54:11;101631.75;;;15.49;100.00
21100;BME280;10708;50.824;4.408;2023-05-02T14:59:16;101620.69;;;15.38;100.00
21100;BME280;10708;50.824;4.408;2023-05-02T15:04:19;101620.34;;;15.47;100.00
21100;BME280;10708;50.824;4.408;2023-05-02T15:09:24;101612.41;;;15.47;100.00
21100;BME280;10708;50.824;4.408;2023-05-02T15:14:28;101624.34;;;15.35;100.00
21100;BME280;10708;50.824;4.408;2023-05-02T15:19:31;101613.69;;;15.37;100.00
21100;BME280;10708;50.824;4.408;2023-05-02T15:24:33;101617.97;;;15.39;100.00
21100;BME280;10708;50.824;4.408;2023-05-02T15:29:37;101617.59;;;15.27;100.00
21100;BME280;10708;50.824;4.408;2023-05-02T15:34:40;101624.56;;;15.29;100.00
21100;BME280;10708;50.824;4.408;2023-05-02T15:39:43;101621.44;;;15.41;100.00
21100;BME280;10708;50.824;4.408;2023-05-02T15:44:47;101620.97;;;15.54;100.00
21100;BME280;10708;50.824;4.408;2023-05-02T15:49:49;101626.34;;;15.52;100.00
21100;BME280;10708;50.824;4.408;2023-05-02T15:54:53;101635.13;;;15.31;100.00
21100;BME280;10708;50.824;4.408;2023-05-02T15:59:58;101636.75;;;15.35;100.00
21100;BME280;10708;50.824;4.408;2023-05-02T16:05:01;101636.44;;;15.42;100.00
21100;BME280;10708;50.824;4.408;2023-05-02T16:10:04;101615.97;;;15.46;100.00
21100;BME280;10708;50.824;4.408;2023-05-02T16:15:08;101622.16;;;15.46;100.00
21100;BME280;10708;50.824;4.408;2023-05-02T16:20:11;101622.19;;;15.45;100.00
21100;BME280;10708;50.824;4.408;2023-05-02T16:25:14;101627.38;;;15.48;100.00
21100;BME280;10708;50.824;4.408;2023-05-02T16:30:18;101618.91;;;15.38;100.00
21100;BME280;10708;50.824;4.408;2023-05-02T16:35:21;101624.28;;;15.37;100.00
21100;BME280;10708;50.824;4.408;2023-05-02T16:40:24;101618.91;;;15.38;100.00
21100;BME280;10708;50.824;4.408;2023-05-02T16:45:28;101611.53;;;15.23;100.00
21100;BME280;10708;50.824;4.408;2023-05-02T16:50:31;101610.06;;;15.16;100.00
21100;BME280;10708;50.824;4.408;2023-05-02T16:55:34;101603.28;;;15.07;100.00
21100;BME280;10708;50.824;4.408;2023-05-02T17:00:38;101610.56;;;15.02;100.00
21100;BME280;10708;50.824;4.408;2023-05-02T17:05:41;101626.19;;;15.10;100.00
21100;BME280;10708;50.824;4.408;2023-05-02T17:10:47;101627.00;;;15.12;100.00
21100;BME280;10708;50.824;4.408;2023-05-02T17:15:52;101628.13;;;15.06;100.00
21100;BME280;10708;50.824;4.408;2023-05-02T17:20:55;101626.53;;;15.01;100.00
21100;BME280;10708;50.824;4.408;2023-05-02T17:25:58;101634.22;;;14.85;100.00
21100;BME280;10708;50.824;4.408;2023-05-02T17:31:02;101626.16;;;14.63;100.00
21100;BME280;10708;50.824;4.408;2023-05-02T17:36:05;101635.50;;;14.73;100.00
21100;BME280;10708;50.824;4.408;2023-05-02T17:41:08;101626.06;;;14.66;100.00
21100;BME280;10708;50.824;4.408;2023-05-02T17:46:12;101642.44;;;14.53;100.00
21100;BME280;10708;50.824;4.408;2023-05-02T17:51:14;101636.41;;;14.48;100.00
21100;BME280;10708;50.824;4.408;2023-05-02T17:56:17;101636.06;;;14.32;100.00
21100;BME280;10708;50.824;4.408;2023-05-02T18:01:21;101651.56;;;14.18;100.00
21100;BME280;10708;50.824;4.408;2023-05-02T18:06:23;101665.56;;;13.95;100.00
21100;BME280;10708;50.824;4.408;2023-05-02T18:11:27;101671.28;;;13.81;100.00
21100;BME280;10708;50.824;4.408;2023-05-02T18:16:33;101665.66;;;13.92;100.00
21100;BME280;10708;50.824;4.408;2023-05-02T18:21:43;101675.88;;;13.76;100.00
21100;BME280;10708;50.824;4.408;2023-05-02T18:26:47;101674.81;;;13.54;100.00
21100;BME280;10708;50.824;4.408;2023-05-02T18:37:10;101685.50;;;13.20;100.00
21100;BME280;10708;50.824;4.408;2023-05-02T18:47:29;101686.53;;;12.83;100.00
21100;BME280;10708;50.824;4.408;2023-05-02T18:52:34;101678.13;;;12.68;100.00
21100;BME280;10708;50.824;4.408;2023-05-02T18:57:37;101680.31;;;12.52;100.00
21100;BME280;10708;50.824;4.408;2023-05-02T19:02:42;101689.59;;;12.34;100.00
21100;BME280;10708;50.824;4.408;2023-05-02T19:07:49;101703.22;;;12.17;100.00
21100;BME280;10708;50.824;4.408;2023-05-02T19:12:52;101719.38;;;12.04;100.00
21100;BME280;10708;50.824;4.408;2023-05-02T19:17:56;101721.38;;;11.94;100.00
21100;BME280;10708;50.824;4.408;2023-05-02T19:23:05;101712.78;;;11.85;100.00
21100;BME280;10708;50.824;4.408;2023-05-02T19:28:11;101707.78;;;11.71;100.00
21100;BME280;10708;50.824;4.408;2023-05-02T19:33:16;101718.59;;;11.59;100.00
21100;BME280;10708;50.824;4.408;2023-05-02T19:38:21;101722.31;;;11.48;100.00
21100;BME280;10708;50.824;4.408;2023-05-02T19:43:23;101728.63;;;11.41;100.00
21100;BME280;10708;50.824;4.408;2023-05-02T19:48:27;101739.41;;;11.31;100.00
21100;BME280;10708;50.824;4.408;2023-05-02T19:53:30;101745.78;;;11.21;100.00
21100;BME280;10708;50.824;4.408;2023-05-02T19:58:32;101746.84;;;11.10;100.00
21100;BME280;10708;50.824;4.408;2023-05-02T20:03:40;101752.28;;;11.03;100.00
21100;BME280;10708;50.824;4.408;2023-05-02T20:08:44;101751.53;;;10.95;100.00
21100;BME280;10708;50.824;4.408;2023-05-02T20:13:49;101761.41;;;10.84;100.00
21100;BME280;10708;50.824;4.408;2023-05-02T20:19:00;101766.81;;;10.76;100.00
21100;BME280;10708;50.824;4.408;2023-05-02T20:24:03;101763.47;;;10.68;100.00
21100;BME280;10708;50.824;4.408;2023-05-02T20:29:05;101773.22;;;10.61;100.00
21100;BME280;10708;50.824;4.408;2023-05-02T20:34:11;101783.91;;;10.52;100.00
21100;BME280;10708;50.824;4.408;2023-05-02T20:39:14;101789.31;;;10.45;100.00
21100;BME280;10708;50.824;4.408;2023-05-02T20:44:20;101790.31;;;10.36;100.00
21100;BME280;10708;50.824;4.408;2023-05-02T20:49:24;101795.63;;;10.31;100.00
21100;BME280;10708;50.824;4.408;2023-05-02T20:54:26;101798.41;;;10.24;100.00
21100;BME280;10708;50.824;4.408;2023-05-02T20:59:30;101787.94;;;10.16;100.00
21100;BME280;10708;50.824;4.408;2023-05-02T21:04:35;101794.19;;;10.09;100.00
21100;BME280;10708;50.824;4.408;2023-05-02T21:09:37;101796.88;;;10.05;100.00
21100;BME280;10708;50.824;4.408;2023-05-02T21:14:40;101803.09;;;9.99;100.00
21100;BME280;10708;50.824;4.408;2023-05-02T21:19:43;101806.69;;;9.93;100.00
21100;BME280;10708;50.824;4.408;2023-05-02T21:24:57;101815.59;;;9.85;100.00
21100;BME280;10708;50.824;4.408;2023-05-02T21:30:01;101802.47;;;9.79;100.00
21100;BME280;10708;50.824;4.408;2023-05-02T21:35:05;101803.47;;;9.70;100.00
21100;BME280;10708;50.824;4.408;2023-05-02T21:40:14;101797.44;;;9.62;100.00
21100;BME280;10708;50.824;4.408;2023-05-02T21:45:17;101795.81;;;9.52;100.00
21100;BME280;10708;50.824;4.408;2023-05-02T21:50:23;101787.16;;;9.42;100.00
21100;BME280;10708;50.824;4.408;2023-05-02T21:55:29;101787.28;;;9.30;100.00
21100;BME280;10708;50.824;4.408;2023-05-02T22:00:37;101772.50;;;9.20;100.00
21100;BME280;10708;50.824;4.408;2023-05-02T22:05:47;101787.53;;;9.09;100.00
21100;BME280;10708;50.824;4.408;2023-05-02T22:10:51;101783.25;;;8.99;100.00
21100;BME280;10708;50.824;4.408;2023-05-02T22:15:55;101795.59;;;8.89;100.00
21100;BME280;10708;50.824;4.408;2023-05-02T22:21:03;101793.06;;;8.78;100.00
21100;BME280;10708;50.824;4.408;2023-05-02T22:26:08;101803.66;;;8.69;100.00
21100;BME280;10708;50.824;4.408;2023-05-02T22:31:14;101811.59;;;8.62;100.00
21100;BME280;10708;50.824;4.408;2023-05-02T22:36:19;101813.44;;;8.52;100.00
21100;BME280;10708;50.824;4.408;2023-05-02T22:41:22;101811.75;;;8.43;100.00
21100;BME280;10708;50.824;4.408;2023-05-02T22:46:26;101812.69;;;8.36;100.00
21100;BME280;10708;50.824;4.408;2023-05-02T22:51:31;101809.22;;;8.28;100.00
21100;BME280;10708;50.824;4.408;2023-05-02T22:56:35;101815.34;;;8.21;100.00
21100;BME280;10708;50.824;4.408;2023-05-02T23:01:41;101811.03;;;8.17;100.00
21100;BME280;10708;50.824;4.408;2023-05-02T23:06:46;101821.53;;;8.12;100.00
21100;BME280;10708;50.824;4.408;2023-05-02T23:11:49;101808.47;;;8.05;100.00
21100;BME280;10708;50.824;4.408;2023-05-02T23:16:53;101804.97;;;8.00;100.00
21100;BME280;10708;50.824;4.408;2023-05-02T23:22:35;101805.03;;;7.94;100.00
21100;BME280;10708;50.824;4.408;2023-05-02T23:27:39;101807.69;;;7.88;100.00
21100;BME280;10708;50.824;4.408;2023-05-02T23:32:43;101808.59;;;7.79;100.00
21100;BME280;10708;50.824;4.408;2023-05-02T23:37:51;101802.50;;;7.71;100.00
21100;BME280;10708;50.824;4.408;2023-05-02T23:42:55;101802.53;;;7.66;100.00
21100;BME280;10708;50.824;4.408;2023-05-02T23:47:59;101808.66;;;7.59;100.00
21100;BME280;10708;50.824;4.408;2023-05-02T23:53:06;101803.47;;;7.53;100.00
21100;BME280;10708;50.824;4.408;2023-05-02T23:58:12;101808.69;;;7.49;100.00
